createdAt,value
2018-10-16T00:01:15.354Z,83.67
2018-10-16T00:03:42.768Z,83.11
2018-10-16T00:06:10.070Z,81.56
2018-10-16T00:08:38.119Z,81.76
2018-10-16T00:11:08.439Z,82.17
2018-10-16T00:13:36.050Z,83.69
2018-10-16T00:16:03.462Z,84.68
2018-10-16T00:18:30.925Z,84.89
2018-10-16T00:20:58.368Z,85.80
2018-10-16T00:23:25.848Z,85.45
2018-10-16T00:25:53.267Z,85.50
2018-10-16T00:28:20.701Z,84.15
2018-10-16T00:30:48.097Z,84.35
2018-10-16T00:33:15.564Z,83.86
2018-10-16T00:35:42.875Z,83.81
2018-10-16T00:38:10.320Z,83.66
2018-10-16T00:40:37.745Z,83.60
2018-10-16T00:43:05.145Z,83.92
2018-10-16T00:45:33.778Z,87.33
2018-10-16T00:48:01.240Z,87.37
2018-10-16T00:50:28.577Z,85.93
2018-10-16T00:52:56.027Z,85.10
2018-10-16T00:55:23.414Z,84.74
2018-10-16T00:57:50.841Z,83.90
2018-10-16T01:00:19.337Z,84.43
2018-10-16T01:02:46.900Z,84.48
2018-10-16T01:05:14.308Z,84.20
2018-10-16T01:07:42.070Z,82.95
2018-10-16T01:10:10.296Z,82.64
2018-10-16T01:12:38.467Z,82.93
2018-10-16T01:15:06.716Z,83.42
2018-10-16T01:17:34.294Z,84.12
2018-10-16T01:20:01.665Z,83.35
2018-10-16T01:22:29.083Z,83.77
2018-10-16T01:24:56.445Z,83.09
2018-10-16T01:27:24.218Z,83.22
2018-10-16T01:29:51.769Z,84.55
2018-10-16T01:32:19.126Z,84.76
2018-10-16T01:34:46.468Z,85.60
2018-10-16T01:37:13.825Z,87.05
2018-10-16T01:39:41.200Z,86.98
2018-10-16T01:42:08.578Z,87.37
2018-10-16T01:44:35.979Z,86.69
2018-10-16T01:47:03.682Z,85.10
2018-10-16T01:49:30.976Z,84.75
2018-10-16T01:51:58.322Z,85.04
2018-10-16T01:54:25.672Z,84.24
2018-10-16T01:56:53.027Z,85.46
2018-10-16T01:59:20.434Z,85.72
2018-10-16T02:01:47.808Z,85.31
2018-10-16T02:04:15.297Z,85.27
2018-10-16T02:06:42.639Z,84.02
2018-10-16T02:09:11.414Z,84.16
2018-10-16T02:11:38.901Z,84.62
2018-10-16T02:14:06.300Z,85.61
2018-10-16T02:16:33.657Z,84.12
2018-10-16T02:19:01.034Z,84.15
2018-10-16T02:21:28.433Z,84.39
2018-10-16T02:23:55.851Z,84.43
2018-10-16T02:26:23.238Z,84.08
2018-10-16T02:28:50.633Z,83.74
2018-10-16T02:31:17.994Z,83.33
2018-10-16T02:33:45.418Z,83.47
2018-10-16T02:36:12.749Z,83.35
2018-10-16T02:38:40.077Z,83.24
2018-10-16T02:41:07.393Z,83.77
2018-10-16T02:43:34.817Z,84.53
2018-10-16T02:46:02.146Z,84.26
2018-10-16T02:48:29.572Z,83.43
2018-10-16T02:50:57.045Z,83.06
2018-10-16T02:53:24.430Z,83.51
2018-10-16T02:55:51.882Z,83.24
2018-10-16T02:58:19.283Z,83.21
2018-10-16T03:00:46.673Z,84.66
2018-10-16T03:03:13.993Z,85.09
2018-10-16T03:05:41.362Z,85.09
2018-10-16T03:08:08.842Z,85.27
2018-10-16T03:10:36.090Z,84.42
2018-10-16T03:13:03.415Z,84.54
2018-10-16T03:15:30.767Z,84.87
2018-10-16T03:17:58.250Z,84.91
2018-10-16T03:20:25.596Z,84.83
2018-10-16T03:22:52.923Z,84.82
2018-10-16T03:25:20.202Z,84.79
2018-10-16T03:27:47.535Z,84.70
2018-10-16T03:30:15.012Z,85.31
2018-10-16T03:32:42.400Z,84.78
2018-10-16T03:35:11.980Z,84.55
2018-10-16T03:37:40.466Z,84.94
2018-10-16T03:40:08.727Z,84.54
2018-10-16T03:42:36.522Z,83.93
2018-10-16T03:45:04.968Z,83.93
2018-10-16T03:47:33.272Z,84.50
2018-10-16T03:50:06.690Z,84.18
2018-10-16T03:52:39.339Z,84.01
2018-10-16T03:55:07.243Z,83.98
2018-10-16T03:57:34.731Z,84.13
2018-10-16T04:00:02.416Z,83.92
2018-10-16T04:02:29.949Z,84.88
2018-10-16T04:04:57.506Z,84.60
2018-10-16T04:07:24.869Z,84.98
2018-10-16T04:09:52.586Z,85.09
2018-10-16T04:12:19.925Z,84.93
2018-10-16T04:14:47.395Z,84.78
2018-10-16T04:17:14.835Z,84.08
2018-10-16T04:19:42.333Z,82.91
2018-10-16T04:22:09.678Z,84.69
2018-10-16T04:24:37.193Z,84.04
2018-10-16T04:27:04.825Z,83.96
2018-10-16T04:29:32.419Z,84.41
2018-10-16T04:31:59.839Z,85.18
2018-10-16T04:34:27.198Z,86.09
2018-10-16T04:36:54.545Z,87.80
2018-10-16T04:39:21.843Z,86.22
2018-10-16T04:41:49.377Z,86.71
2018-10-16T04:44:16.829Z,87.97
2018-10-16T04:46:44.184Z,86.92
2018-10-16T04:49:11.635Z,86.52
2018-10-16T04:51:38.977Z,86.48
2018-10-16T04:54:06.365Z,85.12
2018-10-16T04:56:33.687Z,85.23
2018-10-16T04:59:01.298Z,85.15
2018-10-16T05:01:28.711Z,85.10
2018-10-16T05:03:56.160Z,87.25
2018-10-16T05:06:23.530Z,86.60
2018-10-16T05:08:50.894Z,85.13
2018-10-16T05:11:18.254Z,85.36
2018-10-16T05:13:45.637Z,85.12
2018-10-16T05:16:13.111Z,86.23
2018-10-16T05:18:40.546Z,85.11
2018-10-16T05:21:07.881Z,85.00
2018-10-16T05:23:35.303Z,85.29
2018-10-16T05:26:02.705Z,87.72
2018-10-16T05:28:30.125Z,87.36
2018-10-16T05:30:57.574Z,87.29
2018-10-16T05:33:24.969Z,86.67
2018-10-16T05:35:52.393Z,86.51
2018-10-16T05:38:19.834Z,85.90
2018-10-16T05:40:47.409Z,84.42
2018-10-16T05:43:15.131Z,84.76
2018-10-16T05:45:44.172Z,85.34
2018-10-16T05:48:11.671Z,87.62
2018-10-16T05:50:39.363Z,87.13
2018-10-16T05:53:06.998Z,87.39
2018-10-16T05:55:34.832Z,89.15
2018-10-16T05:58:02.491Z,88.54
2018-10-16T06:00:34.603Z,87.62
2018-10-16T06:03:02.561Z,86.64
2018-10-16T06:05:30.127Z,86.70
2018-10-16T06:08:21.695Z,86.84
2018-10-16T06:10:49.538Z,86.93
2018-10-16T06:13:17.323Z,86.92
2018-10-16T06:15:44.945Z,86.50
2018-10-16T06:18:13.346Z,86.46
2018-10-16T06:20:41.216Z,86.58
2018-10-16T06:23:09.068Z,85.46
2018-10-16T06:25:36.967Z,85.72
2018-10-16T06:28:14.928Z,85.75
2018-10-16T06:30:42.760Z,85.37
2018-10-16T06:33:10.871Z,85.63
2018-10-16T06:35:38.656Z,86.06
2018-10-16T06:38:06.250Z,86.45
2018-10-16T06:40:33.906Z,87.62
2018-10-16T06:43:01.445Z,88.52
2018-10-16T06:45:28.959Z,87.57
2018-10-16T06:47:56.511Z,87.04
2018-10-16T06:50:23.997Z,88.25
2018-10-16T06:52:51.536Z,87.44
2018-10-16T06:55:19.201Z,86.96
2018-10-16T06:57:46.679Z,87.09
2018-10-16T07:00:14.456Z,86.63
2018-10-16T07:02:41.965Z,87.40
2018-10-16T07:05:09.486Z,87.15
2018-10-16T07:07:36.957Z,86.86
2018-10-16T07:10:05.959Z,86.42
2018-10-16T07:12:33.528Z,84.98
2018-10-16T07:15:01.138Z,83.87
2018-10-16T07:17:28.693Z,83.83
2018-10-16T07:19:56.226Z,84.36
2018-10-16T07:22:24.003Z,86.39
2018-10-16T07:24:51.507Z,87.88
2018-10-16T07:27:18.987Z,87.12
2018-10-16T07:29:46.636Z,85.64
2018-10-16T07:32:14.215Z,85.81
2018-10-16T07:34:41.756Z,85.14
2018-10-16T07:37:09.500Z,83.80
2018-10-16T07:39:37.095Z,81.76
2018-10-16T07:42:04.733Z,82.63
2018-10-16T07:44:32.263Z,83.61
2018-10-16T07:46:59.800Z,84.26
2018-10-16T07:49:27.212Z,85.08
2018-10-16T07:51:54.558Z,84.31
2018-10-16T07:54:22.000Z,82.64
2018-10-16T07:56:49.454Z,82.12
2018-10-16T07:59:16.837Z,83.29
2018-10-16T08:01:44.173Z,84.37
2018-10-16T08:04:11.592Z,83.87
2018-10-16T08:06:38.999Z,83.82
2018-10-16T08:09:16.848Z,83.04
2018-10-16T08:11:48.621Z,82.65
2018-10-16T08:14:17.205Z,82.02
2018-10-16T08:16:45.911Z,81.87
2018-10-16T08:19:13.415Z,81.62
2018-10-16T08:21:40.846Z,81.86
2018-10-16T08:24:08.572Z,81.49
2018-10-16T08:26:35.983Z,80.93
2018-10-16T08:29:03.733Z,81.25
2018-10-16T08:31:31.115Z,81.47
2018-10-16T08:33:58.554Z,80.60
2018-10-16T08:36:26.106Z,81.02
2018-10-16T08:39:07.859Z,80.99
2018-10-16T08:43:50.149Z,81.17
2018-10-16T08:46:29.203Z,80.48
2018-10-16T08:49:08.145Z,80.12
2018-10-16T08:51:40.839Z,79.85
2018-10-16T08:54:08.639Z,80.78
2018-10-16T08:56:36.117Z,81.97
2018-10-16T08:59:03.653Z,80.75
2018-10-16T09:01:31.049Z,78.96
2018-10-16T09:03:59.098Z,77.68
2018-10-16T09:06:26.543Z,77.54
2018-10-16T09:08:53.960Z,75.83
2018-10-16T09:11:21.389Z,75.51
2018-10-16T09:13:48.827Z,76.00
2018-10-16T09:16:16.298Z,75.54
2018-10-16T09:18:43.757Z,75.92
2018-10-16T09:21:11.134Z,75.62
2018-10-16T09:23:38.619Z,73.76
2018-10-16T09:26:06.176Z,72.57
2018-10-16T09:28:33.670Z,72.91
2018-10-16T09:31:01.083Z,71.47
2018-10-16T09:33:28.381Z,71.87
2018-10-16T09:35:55.826Z,71.07
2018-10-16T09:38:23.232Z,70.61
2018-10-16T09:40:50.580Z,69.07
2018-10-16T09:43:17.975Z,68.19
2018-10-16T09:45:45.457Z,68.41
2018-10-16T09:48:12.810Z,68.59
2018-10-16T09:50:40.146Z,66.89
2018-10-16T09:53:07.746Z,66.80
2018-10-16T09:55:35.070Z,65.95
2018-10-16T09:58:02.471Z,67.04
2018-10-16T10:00:35.471Z,66.60
2018-10-16T10:03:03.026Z,67.09
2018-10-16T10:05:30.513Z,65.69
2018-10-16T10:07:57.889Z,66.73
2018-10-16T10:10:25.346Z,66.25
2018-10-16T10:12:52.721Z,66.11
2018-10-16T10:15:20.123Z,65.38
2018-10-16T10:17:47.564Z,65.63
2018-10-16T10:20:14.960Z,65.18
2018-10-16T10:22:42.379Z,63.65
2018-10-16T10:25:09.867Z,63.58
2018-10-16T10:27:37.217Z,63.63
2018-10-16T10:30:06.970Z,63.67
2018-10-16T10:32:34.294Z,63.62
2018-10-16T10:35:01.652Z,63.21
2018-10-16T10:37:29.109Z,63.03
2018-10-16T10:39:56.549Z,61.74
2018-10-16T10:42:23.910Z,63.00
2018-10-16T10:44:51.299Z,62.53
2018-10-16T10:47:18.752Z,62.44
2018-10-16T10:49:46.189Z,62.36
2018-10-16T10:52:13.640Z,62.02
2018-10-16T10:54:41.011Z,61.91
2018-10-16T10:57:08.610Z,61.85
2018-10-16T10:59:35.879Z,60.63
2018-10-16T11:02:04.104Z,60.92
2018-10-16T11:04:31.632Z,60.77
2018-10-16T11:06:59.095Z,60.38
2018-10-16T11:09:26.401Z,60.36
2018-10-16T11:11:54.826Z,60.40
2018-10-16T11:14:23.275Z,58.08
2018-10-16T11:16:50.687Z,57.99
2018-10-16T11:19:18.486Z,55.93
2018-10-16T11:21:46.000Z,56.55
2018-10-16T11:24:13.437Z,55.00
2018-10-16T11:26:40.799Z,54.48
2018-10-16T11:29:08.192Z,55.21
2018-10-16T11:31:35.816Z,54.89
2018-10-16T11:34:03.147Z,54.06
2018-10-16T11:36:30.517Z,53.93
2018-10-16T11:38:57.926Z,54.61
2018-10-16T11:41:25.367Z,54.32
2018-10-16T11:43:52.804Z,53.99
2018-10-16T11:46:20.205Z,53.23
2018-10-16T11:48:47.617Z,50.68
2018-10-16T11:51:14.981Z,50.03
2018-10-16T11:53:42.446Z,47.98
2018-10-16T11:56:10.035Z,47.74
2018-10-16T11:58:37.424Z,46.71
2018-10-16T12:01:04.801Z,45.76
2018-10-16T12:03:32.169Z,45.57
2018-10-16T12:05:59.647Z,46.14
2018-10-16T12:08:27.068Z,46.96
2018-10-16T12:10:54.495Z,45.70
2018-10-16T12:13:21.751Z,44.41
2018-10-16T12:15:49.106Z,44.52
2018-10-16T12:18:26.312Z,42.61
2018-10-16T12:20:57.934Z,41.15
2018-10-16T12:23:25.430Z,42.97
2018-10-16T12:25:52.874Z,42.35
2018-10-16T12:28:20.268Z,43.29
2018-10-16T12:30:47.659Z,42.99
2018-10-16T12:33:15.088Z,45.31
2018-10-16T12:35:42.377Z,45.02
2018-10-16T12:38:09.702Z,44.18
2018-10-16T12:40:37.110Z,42.80
2018-10-16T12:43:04.675Z,43.03
2018-10-16T12:45:32.103Z,41.55
2018-10-16T12:47:59.571Z,41.33
2018-10-16T12:50:26.986Z,40.57
2018-10-16T12:52:54.391Z,40.04
2018-10-16T12:55:21.650Z,38.64
2018-10-16T12:57:49.193Z,37.79
2018-10-16T13:00:16.757Z,38.22
2018-10-16T13:02:44.301Z,38.18
2018-10-16T13:05:11.875Z,38.94
2018-10-16T13:07:39.846Z,38.62
2018-10-16T13:10:10.218Z,38.86
2018-10-16T13:12:37.690Z,38.57
2018-10-16T13:15:06.917Z,38.18
2018-10-16T13:17:34.510Z,36.51
2018-10-16T13:20:02.061Z,39.12
2018-10-16T13:22:29.479Z,37.75
2018-10-16T13:24:56.904Z,36.97
2018-10-16T13:27:24.254Z,37.79
2018-10-16T13:29:51.664Z,39.28
2018-10-16T13:32:19.245Z,39.93
2018-10-16T13:34:46.777Z,38.37
2018-10-16T13:37:14.671Z,37.55
2018-10-16T13:39:42.310Z,38.13
2018-10-16T13:42:09.739Z,38.54
2018-10-16T13:44:37.503Z,38.11
2018-10-16T13:47:05.203Z,37.84
2018-10-16T13:49:32.762Z,36.68
2018-10-16T13:52:00.257Z,36.85
2018-10-16T13:54:27.733Z,34.79
2018-10-16T13:56:55.248Z,36.05
2018-10-16T13:59:22.860Z,35.06
2018-10-16T14:01:50.353Z,34.74
2018-10-16T14:04:17.867Z,34.65
2018-10-16T14:06:45.506Z,37.23
2018-10-16T14:09:13.098Z,37.69
2018-10-16T14:11:40.687Z,36.94
2018-10-16T14:14:08.389Z,36.46
2018-10-16T14:16:35.945Z,35.07
2018-10-16T14:19:03.495Z,35.36
2018-10-16T14:21:31.008Z,34.98
2018-10-16T14:23:58.553Z,33.14
2018-10-16T14:26:26.288Z,34.08
2018-10-16T14:28:53.979Z,33.69
2018-10-16T14:31:25.075Z,34.52
2018-10-16T14:33:55.153Z,35.97
2018-10-16T14:36:23.058Z,35.74
2018-10-16T14:38:51.261Z,35.09
2018-10-16T14:41:19.129Z,35.78
2018-10-16T14:43:47.229Z,35.82
2018-10-16T14:46:16.442Z,35.67
2018-10-16T14:48:44.099Z,36.17
2018-10-16T14:51:11.632Z,35.10
2018-10-16T14:53:39.201Z,37.59
2018-10-16T14:56:07.012Z,39.82
2018-10-16T14:58:34.956Z,40.30
2018-10-16T15:01:02.634Z,41.94
2018-10-16T15:03:30.503Z,44.53
2018-10-16T15:08:44.525Z,47.79
2018-10-16T15:13:58.275Z,50.30
2018-10-16T15:18:53.478Z,52.44
2018-10-16T15:21:21.259Z,52.26
2018-10-16T15:23:49.083Z,52.67
2018-10-16T15:26:19.198Z,53.12
2018-10-16T15:28:48.338Z,53.00
2018-10-16T15:31:16.068Z,54.01
2018-10-16T15:33:43.900Z,54.56
2018-10-16T15:38:57.558Z,56.18
2018-10-16T15:41:25.360Z,55.87
2018-10-16T15:43:53.118Z,55.11
2018-10-16T15:46:21.130Z,56.79
2018-10-16T15:51:30.623Z,56.76
2018-10-16T15:53:58.466Z,57.40
2018-10-16T15:56:26.170Z,58.38
2018-10-16T15:58:53.819Z,59.95
2018-10-16T16:01:21.608Z,60.74
2018-10-16T16:03:49.388Z,61.28
2018-10-16T16:06:17.446Z,61.93
2018-10-16T16:08:45.387Z,62.09
2018-10-16T16:11:13.275Z,62.26
2018-10-16T16:13:40.956Z,63.62
2018-10-16T16:16:08.906Z,63.95
2018-10-16T16:18:36.676Z,65.18
2018-10-16T16:21:05.718Z,66.10
2018-10-16T16:23:33.658Z,66.13
2018-10-16T16:26:01.751Z,65.42
2018-10-16T16:28:29.377Z,65.80
2018-10-16T16:30:57.221Z,65.84
2018-10-16T16:33:25.040Z,65.34
2018-10-16T16:35:52.734Z,66.34
2018-10-16T16:38:20.562Z,67.34
2018-10-16T16:40:48.671Z,67.50
2018-10-16T16:43:16.495Z,67.47
2018-10-16T16:45:44.246Z,68.06
2018-10-16T16:48:11.924Z,67.46
2018-10-16T16:50:39.414Z,67.61
2018-10-16T16:53:07.061Z,68.16
2018-10-16T16:55:34.642Z,68.59
2018-10-16T16:58:02.327Z,68.35
2018-10-16T17:00:29.794Z,69.58
2018-10-16T17:02:57.295Z,71.02
2018-10-16T17:05:24.982Z,70.10
2018-10-16T17:07:52.624Z,70.43
2018-10-16T17:10:20.418Z,70.75
2018-10-16T17:12:48.177Z,72.84
2018-10-16T17:15:16.265Z,73.25
2018-10-16T17:17:45.200Z,75.09
2018-10-16T17:20:13.220Z,74.79
2018-10-16T17:22:40.868Z,74.27
2018-10-16T17:25:11.163Z,74.77
2018-10-16T17:27:38.638Z,74.44
2018-10-16T17:30:09.278Z,74.37
2018-10-16T17:32:36.978Z,74.45
2018-10-16T17:35:05.761Z,75.13
2018-10-16T17:37:33.329Z,74.70
2018-10-16T17:40:01.018Z,75.54
2018-10-16T17:42:28.551Z,75.76
2018-10-16T17:44:56.067Z,75.91
2018-10-16T17:47:23.641Z,76.06
2018-10-16T17:49:51.218Z,76.66
2018-10-16T17:52:18.769Z,77.19
2018-10-16T17:54:46.397Z,77.15
2018-10-16T17:57:14.044Z,77.00
2018-10-16T17:59:41.606Z,78.69
2018-10-16T18:02:09.063Z,79.34
2018-10-16T18:04:36.732Z,78.55
2018-10-16T18:07:04.247Z,78.21
2018-10-16T18:09:31.706Z,81.81
2018-10-16T18:11:59.466Z,81.01
2018-10-16T18:14:32.506Z,80.16
2018-10-16T18:17:00.422Z,79.65
2018-10-16T18:19:27.978Z,80.16
2018-10-16T18:21:55.560Z,80.03
2018-10-16T18:24:23.125Z,80.49
2018-10-16T18:26:50.789Z,80.08
2018-10-16T18:29:18.333Z,79.85
2018-10-16T18:31:45.800Z,79.76
2018-10-16T18:34:13.362Z,80.31
2018-10-16T18:36:40.931Z,80.60
2018-10-16T18:39:08.586Z,80.33
2018-10-16T18:41:36.674Z,80.59
2018-10-16T18:44:04.364Z,81.05
2018-10-16T18:46:31.907Z,81.17
2018-10-16T18:48:59.476Z,82.20
2018-10-16T18:51:28.144Z,81.87
2018-10-16T18:53:55.891Z,82.22
2018-10-16T18:56:23.576Z,81.47
2018-10-16T18:58:51.135Z,81.43
2018-10-16T19:01:18.768Z,81.30
2018-10-16T19:03:46.369Z,81.79
2018-10-16T19:06:13.973Z,84.22
2018-10-16T19:08:41.618Z,83.69
2018-10-16T19:11:09.146Z,84.16
2018-10-16T19:13:36.738Z,86.05
2018-10-16T19:16:04.770Z,85.29
2018-10-16T19:18:32.438Z,84.24
2018-10-16T19:21:00.229Z,84.08
2018-10-16T19:23:27.768Z,83.99
2018-10-16T19:25:55.311Z,83.41
2018-10-16T19:28:23.191Z,83.72
2018-10-16T19:30:50.935Z,83.88
2018-10-16T19:33:18.698Z,83.46
2018-10-16T19:35:46.191Z,83.76
2018-10-16T19:38:13.891Z,83.64
2018-10-16T19:40:41.529Z,83.35
2018-10-16T19:43:09.058Z,84.32
2018-10-16T19:45:37.601Z,85.47
2018-10-16T19:48:05.574Z,85.12
2018-10-16T19:50:33.367Z,84.71
2018-10-16T19:53:01.134Z,85.53
2018-10-16T19:55:28.972Z,85.36
2018-10-16T19:57:56.856Z,85.39
2018-10-16T20:00:24.942Z,87.06
2018-10-16T20:02:52.993Z,87.75
2018-10-16T20:05:21.725Z,88.21
2018-10-16T20:07:49.329Z,87.65
2018-10-16T20:10:16.928Z,87.02
2018-10-16T20:12:44.549Z,87.13
2018-10-16T20:15:12.749Z,86.40
2018-10-16T20:17:40.310Z,85.93
2018-10-16T20:20:08.607Z,87.14
2018-10-16T20:22:36.243Z,88.56
2018-10-16T20:25:04.181Z,88.19
2018-10-16T20:27:31.938Z,88.06
2018-10-16T20:29:59.659Z,87.62
2018-10-16T20:32:27.370Z,86.93
2018-10-16T20:34:54.980Z,87.65
2018-10-16T20:37:22.682Z,87.58
2018-10-16T20:39:50.203Z,89.57
2018-10-16T20:42:17.800Z,89.51
2018-10-16T20:44:45.393Z,89.89
2018-10-16T20:47:13.162Z,89.26
2018-10-16T20:49:40.650Z,90.04
2018-10-16T20:52:08.174Z,89.25
2018-10-16T20:54:35.748Z,89.14
2018-10-16T20:57:03.526Z,88.35
2018-10-16T20:59:31.085Z,88.80
2018-10-16T21:01:58.641Z,89.25
2018-10-16T21:04:26.189Z,89.45
2018-10-16T21:06:53.948Z,89.00
2018-10-16T21:09:21.416Z,88.40
2018-10-16T21:11:48.933Z,86.98
2018-10-16T21:14:16.566Z,87.16
2018-10-16T21:16:44.577Z,87.79
2018-10-16T21:19:12.399Z,88.91
2018-10-16T21:21:39.921Z,89.86
2018-10-16T21:24:07.562Z,89.28
2018-10-16T21:26:35.210Z,90.30
2018-10-16T21:29:02.971Z,89.25
2018-10-16T21:31:30.748Z,89.07
2018-10-16T21:33:58.364Z,88.93
2018-10-16T21:36:25.910Z,89.42
2018-10-16T21:38:53.471Z,88.98
2018-10-16T21:41:21.054Z,88.11
2018-10-16T21:43:48.692Z,88.43
2018-10-16T21:46:16.280Z,87.35
2018-10-16T21:48:44.272Z,88.91
2018-10-16T21:51:12.141Z,88.98
2018-10-16T21:53:39.753Z,88.58
2018-10-16T21:56:07.490Z,88.41
2018-10-16T21:58:35.274Z,87.84
2018-10-16T22:01:10.099Z,87.72
2018-10-16T22:03:37.936Z,88.48
2018-10-16T22:06:05.724Z,89.18
2018-10-16T22:08:33.216Z,89.01
2018-10-16T22:11:00.844Z,90.22
2018-10-16T22:13:28.579Z,91.01
2018-10-16T22:15:56.148Z,91.30
2018-10-16T22:18:23.780Z,90.77
2018-10-16T22:20:51.427Z,91.22
2018-10-16T22:23:19.078Z,91.50
2018-10-16T22:25:46.686Z,90.62
2018-10-16T22:28:14.260Z,89.97
2018-10-16T22:30:41.808Z,89.27
2018-10-16T22:33:09.787Z,88.19
2018-10-16T22:35:37.332Z,89.09
2018-10-16T22:38:05.493Z,88.43
2018-10-16T22:40:33.182Z,88.53
2018-10-16T22:43:00.822Z,88.82
2018-10-16T22:45:28.511Z,88.66
2018-10-16T22:47:56.207Z,88.47
2018-10-16T22:50:23.880Z,88.51
2018-10-16T22:52:51.615Z,89.60
2018-10-16T22:55:19.327Z,89.14
2018-10-16T22:57:46.854Z,89.42
2018-10-16T23:00:16.056Z,89.26
2018-10-16T23:02:44.339Z,88.86
2018-10-16T23:05:12.228Z,89.85
2018-10-16T23:07:39.629Z,89.50
2018-10-16T23:10:07.295Z,88.64
2018-10-16T23:12:34.836Z,89.42
2018-10-16T23:15:02.399Z,90.97
2018-10-16T23:17:30.068Z,91.42
2018-10-16T23:19:57.677Z,90.77
2018-10-16T23:22:25.305Z,90.22
2018-10-16T23:24:52.798Z,89.68
2018-10-16T23:27:20.311Z,89.89
2018-10-16T23:29:47.892Z,89.51
2018-10-16T23:32:15.521Z,89.20
2018-10-16T23:34:43.179Z,91.41
2018-10-16T23:37:10.970Z,90.60
2018-10-16T23:39:38.510Z,90.23
2018-10-16T23:42:06.123Z,90.34
2018-10-16T23:44:33.682Z,88.98
2018-10-16T23:47:01.321Z,88.52
2018-10-16T23:49:29.070Z,88.55
2018-10-16T23:51:56.558Z,89.61
2018-10-16T23:54:24.155Z,90.30
2018-10-16T23:56:51.645Z,89.12
2018-10-16T23:59:19.124Z,89.67
